createdAt,value
2016-06-06T08:40:07.824Z,71.8
2016-06-06T08:40:11.746Z,71.7
2016-06-06T08:40:14.699Z,71.5
2016-06-06T08:40:17.699Z,71.2
2016-06-06T08:40:20.652Z,71.5
2016-06-06T08:40:24.621Z,71.4
2016-06-06T08:40:27.558Z,71.3
2016-06-06T08:40:30.527Z,71.1
2016-06-06T08:40:33.464Z,71
2016-06-06T08:40:37.386Z,71.4
2016-06-06T08:40:40.324Z,71.6
2016-06-06T08:40:43.261Z,71.4
2016-06-06T08:40:46.214Z,71
2016-06-06T08:40:50.136Z,71.5
2016-06-06T08:40:53.089Z,71.2
2016-06-06T08:40:56.027Z,71
2016-06-06T08:40:58.980Z,71.3
2016-06-06T08:41:02.920Z,70.9
2016-06-06T08:41:05.858Z,71.3
2016-06-06T08:41:08.795Z,71
2016-06-06T08:41:11.733Z,71.5
2016-06-06T08:41:15.655Z,71.5
2016-06-06T08:41:18.592Z,71.5
2016-06-06T08:41:21.545Z,72.1
2016-06-06T08:41:24.499Z,71.8
2016-06-06T08:41:28.405Z,72
2016-06-06T08:41:31.342Z,71.8
2016-06-06T08:41:34.280Z,71.7
2016-06-06T08:41:37.233Z,71.8
2016-06-06T08:41:40.999Z,71.7
2016-06-06T08:41:43.780Z,71.7
2016-06-06T08:41:46.717Z,71.6
2016-06-06T08:41:49.561Z,71.7
2016-06-06T08:41:53.842Z,71.5
2016-06-06T08:41:56.795Z,71.8
2016-06-06T08:41:59.733Z,71.5
2016-06-06T08:42:03.845Z,71.6
2016-06-06T08:42:07.173Z,71.6
2016-06-06T08:42:10.111Z,71.6
2016-06-06T08:42:14.033Z,71.7
2016-06-06T08:42:16.986Z,71.7
2016-06-06T08:42:19.939Z,71.4
2016-06-06T08:42:22.877Z,71.7
2016-06-06T08:42:26.798Z,71.9
2016-06-06T08:42:29.595Z,71.8
2016-06-06T08:42:32.533Z,71.8
2016-06-06T08:42:35.470Z,72
2016-06-06T08:42:39.236Z,71.9
2016-06-06T08:42:42.189Z,72
2016-06-06T08:42:45.127Z,71.8
2016-06-06T08:42:48.080Z,71.8
2016-06-06T08:42:51.845Z,72
2016-06-06T08:42:54.783Z,72
2016-06-06T08:42:57.720Z,71.9
2016-06-06T08:43:00.673Z,71.8
2016-06-06T08:43:04.614Z,71.8
2016-06-06T08:43:07.551Z,72
2016-06-06T08:43:10.333Z,71.8
2016-06-06T08:43:13.270Z,72
2016-06-06T08:43:17.208Z,71.8
2016-06-06T08:43:22.192Z,71.8
2016-06-06T08:43:27.442Z,71.8
2016-06-06T08:43:30.395Z,71.7
2016-06-06T08:43:33.208Z,71.6
2016-06-06T08:43:36.145Z,71.7
2016-06-06T08:43:40.067Z,71.9
2016-06-06T08:43:44.005Z,71.9
2016-06-06T08:43:47.989Z,71.8
2016-06-06T08:43:51.770Z,71.9
2016-06-06T08:43:54.583Z,71.6
2016-06-06T08:43:57.770Z,71.8
2016-06-06T08:44:00.723Z,72
2016-06-06T08:44:04.491Z,71.5
2016-06-06T08:44:07.960Z,71.8
2016-06-06T08:44:11.678Z,71.5
2016-06-06T08:44:15.866Z,71.5
2016-06-06T08:44:19.413Z,71.9
2016-06-06T08:44:22.366Z,71.6
2016-06-06T08:44:27.757Z,71.9
2016-06-06T08:44:30.710Z,71.8
2016-06-06T08:44:34.632Z,71.7
2016-06-06T08:44:40.085Z,71.6
2016-06-06T08:44:42.757Z,71.6
2016-06-06T08:44:45.725Z,71.8
2016-06-06T08:44:48.678Z,71.7
2016-06-06T08:44:53.069Z,71.8
2016-06-06T08:44:55.882Z,71.6
2016-06-06T08:44:59.632Z,71.9
2016-06-06T08:45:03.947Z,71.6
2016-06-06T08:45:06.900Z,71.5
2016-06-06T08:45:09.853Z,71.6
2016-06-06T08:45:13.760Z,71.6
2016-06-06T08:45:16.697Z,71.6
2016-06-06T08:45:19.650Z,71.9
2016-06-06T08:45:22.463Z,71.9
2016-06-06T08:45:26.400Z,71.9
2016-06-06T08:45:29.338Z,71.7
2016-06-06T08:45:32.275Z,71.7
2016-06-06T08:45:35.213Z,71.3
2016-06-06T08:45:38.978Z,71.7
2016-06-06T08:45:41.916Z,71.7
2016-06-06T08:45:44.869Z,71.9
2016-06-06T08:45:47.806Z,71.8
2016-06-06T08:45:51.728Z,71.7
2016-06-06T08:45:54.681Z,71.6
2016-06-06T08:45:57.619Z,71.7
2016-06-06T08:46:00.556Z,71.7
2016-06-06T08:46:04.496Z,71.6
2016-06-06T08:46:07.449Z,71.6
2016-06-06T08:46:10.387Z,71.8
2016-06-06T08:46:13.324Z,71.8
2016-06-06T08:46:17.090Z,71.3
2016-06-06T08:46:20.043Z,71.6
2016-06-06T08:46:22.996Z,71.7
2016-06-06T08:46:25.949Z,71.7
2016-06-06T08:46:29.871Z,71.8
2016-06-06T08:46:32.808Z,71.9
2016-06-06T08:46:35.605Z,71.8
2016-06-06T08:46:38.543Z,71.9
2016-06-06T08:46:42.449Z,71.8
2016-06-06T08:46:45.402Z,71.8
2016-06-06T08:46:48.340Z,71.4
2016-06-06T08:46:51.277Z,71.8
2016-06-06T08:46:55.215Z,71.7
2016-06-06T08:46:58.168Z,71.7
2016-06-06T08:47:01.140Z,71.5
2016-06-06T08:47:04.077Z,71.7
2016-06-06T08:47:07.999Z,71.4
2016-06-06T08:47:10.936Z,71.6
2016-06-06T08:47:13.874Z,71.9
2016-06-06T08:47:16.827Z,71.6
2016-06-06T08:47:20.749Z,71.7
2016-06-06T08:47:23.702Z,71.8
2016-06-06T08:47:26.483Z,71.9
2016-06-06T08:47:29.436Z,72
2016-06-06T08:47:33.358Z,72
2016-06-06T08:47:36.296Z,72
2016-06-06T08:47:39.249Z,72
2016-06-06T08:47:42.030Z,72
2016-06-06T08:47:45.780Z,71.9
2016-06-06T08:47:48.733Z,71.6
2016-06-06T08:47:51.671Z,72
2016-06-06T08:47:54.624Z,71.6
2016-06-06T08:47:58.546Z,71.6
2016-06-06T08:48:01.502Z,71.5
2016-06-06T08:48:04.439Z,71.9
2016-06-06T08:48:07.377Z,71.9
2016-06-06T08:48:11.299Z,71.6
2016-06-06T08:48:14.252Z,71.7
2016-06-06T08:48:17.205Z,71.7
2016-06-06T08:48:20.158Z,71.7
2016-06-06T08:48:24.080Z,71.6
2016-06-06T08:48:27.018Z,71.5
2016-06-06T08:48:29.799Z,71.5
2016-06-06T08:48:32.736Z,71.8
2016-06-06T08:48:36.658Z,71.8
2016-06-06T08:48:39.596Z,71.8
2016-06-06T08:48:42.393Z,71.7
2016-06-06T08:48:45.330Z,71.7
2016-06-06T08:48:49.268Z,71.6
2016-06-06T08:48:52.221Z,71.8
2016-06-06T08:48:55.158Z,71.7
2016-06-06T08:48:58.143Z,71.6
2016-06-06T08:49:02.130Z,71.6
2016-06-06T08:49:05.067Z,71.7
2016-06-06T08:49:08.005Z,71.5
2016-06-06T08:49:10.958Z,71.7
2016-06-06T08:49:14.880Z,71.7
2016-06-06T08:49:17.817Z,71.8
2016-06-06T08:49:20.771Z,71.8
2016-06-06T08:49:23.552Z,71.8
2016-06-06T08:49:27.474Z,71.9
2016-06-06T08:49:30.427Z,71.9
2016-06-06T08:49:33.364Z,71.9
2016-06-06T08:49:36.302Z,71.8
2016-06-06T08:49:40.083Z,71.7
2016-06-06T08:49:43.021Z,71.8
2016-06-06T08:49:45.958Z,71.8
2016-06-06T08:49:48.911Z,71.4
2016-06-06T08:49:53.099Z,71.9
2016-06-06T08:49:56.224Z,71.8
2016-06-06T08:49:59.161Z,71.7
2016-06-06T08:50:02.929Z,71.8
2016-06-06T08:50:05.866Z,71.8
2016-06-06T08:50:08.804Z,71.7
2016-06-06T08:50:11.741Z,71.5
2016-06-06T08:50:15.679Z,71.9
2016-06-06T08:50:18.616Z,71.9
2016-06-06T08:50:21.569Z,71.9
2016-06-06T08:50:24.507Z,71.9
2016-06-06T08:50:28.413Z,71.8
2016-06-06T08:50:31.366Z,71.9
2016-06-06T08:50:34.304Z,71.9
2016-06-06T08:50:37.241Z,71.8
2016-06-06T08:50:41.163Z,71.8
2016-06-06T08:50:44.101Z,71.8
2016-06-06T08:50:46.898Z,71.9
2016-06-06T08:50:49.694Z,71.9
2016-06-06T08:50:53.632Z,71.9
2016-06-06T08:50:56.273Z,71.8
2016-06-06T08:50:59.226Z,72
2016-06-06T08:51:02.166Z,71.8
2016-06-06T08:51:06.072Z,71.4
2016-06-06T08:51:09.041Z,71.8
2016-06-06T08:51:11.838Z,71.9
2016-06-06T08:51:14.619Z,71.7
2016-06-06T08:51:18.541Z,71.8
2016-06-06T08:51:21.479Z,71.8
2016-06-06T08:51:24.432Z,71.8
2016-06-06T08:51:27.401Z,71.5
2016-06-06T08:51:31.322Z,71.5
2016-06-06T08:51:34.276Z,71.4
2016-06-06T08:51:37.229Z,71.7
2016-06-06T08:51:40.166Z,71.8
2016-06-06T08:51:44.088Z,71.8
2016-06-06T08:51:47.026Z,71.9
2016-06-06T08:51:49.963Z,71.3
2016-06-06T08:51:52.901Z,71.7
2016-06-06T08:51:56.666Z,71.8
2016-06-06T08:51:59.619Z,71.8
2016-06-06T08:52:02.404Z,71.8
2016-06-06T08:52:05.341Z,71.9
2016-06-06T08:52:09.107Z,71.8
2016-06-06T08:52:12.060Z,71.8
2016-06-06T08:52:14.997Z,71.9
2016-06-06T08:52:17.935Z,71.8
2016-06-06T08:52:21.872Z,71.8
2016-06-06T08:52:24.810Z,71.9
2016-06-06T08:52:27.747Z,71.8
2016-06-06T08:52:30.700Z,72
2016-06-06T08:52:34.622Z,71.8
2016-06-06T08:52:37.575Z,71.8
2016-06-06T08:52:40.513Z,71.8
2016-06-06T08:52:43.450Z,71.9
2016-06-06T08:52:47.075Z,71.7
2016-06-06T08:52:50.013Z,72.1
2016-06-06T08:52:52.950Z,71.8
2016-06-06T08:52:55.888Z,72.1
2016-06-06T08:52:59.654Z,72.1
2016-06-06T08:53:02.609Z,71.7
2016-06-06T08:53:05.546Z,71.8
2016-06-06T08:53:08.484Z,71.8
2016-06-06T08:53:12.406Z,72.1
2016-06-06T08:53:15.202Z,71.8
2016-06-06T08:53:18.140Z,71.7
2016-06-06T08:53:21.093Z,71.8
2016-06-06T08:53:25.031Z,71.6
2016-06-06T08:53:27.999Z,71.8
2016-06-06T08:53:30.921Z,71.8
2016-06-06T08:53:33.874Z,71.8
2016-06-06T08:53:37.640Z,71.6
2016-06-06T08:53:40.577Z,71.8
2016-06-06T08:53:43.531Z,71.8
2016-06-06T08:53:46.468Z,72.1
2016-06-06T08:53:50.249Z,71.8
2016-06-06T08:53:53.187Z,71.7
2016-06-06T08:53:56.124Z,71.8
2016-06-06T08:53:59.062Z,71.8
2016-06-06T08:54:02.846Z,71.6
2016-06-06T08:54:05.799Z,72
2016-06-06T08:54:08.737Z,71.6
2016-06-06T08:54:11.690Z,71.7
2016-06-06T08:54:15.627Z,71.8
2016-06-06T08:54:18.565Z,72.1
2016-06-06T08:54:21.502Z,71.6
2016-06-06T08:54:24.455Z,71.5
2016-06-06T08:54:28.221Z,71.1
2016-06-06T08:54:31.159Z,71.1
2016-06-06T08:54:34.112Z,71.5
2016-06-06T08:54:37.049Z,71.1
2016-06-06T08:54:40.971Z,71.5
2016-06-06T08:54:43.893Z,71.2
2016-06-06T08:54:46.830Z,71.2
2016-06-06T08:54:49.784Z,71.2
2016-06-06T08:54:53.705Z,71.2
2016-06-06T08:54:56.487Z,71.5
2016-06-06T08:54:59.440Z,71.4
2016-06-06T08:55:02.380Z,71.8
2016-06-06T08:55:06.302Z,71.3
2016-06-06T08:55:09.240Z,71.1
2016-06-06T08:55:12.177Z,71.9
2016-06-06T08:55:14.958Z,71.4
2016-06-06T08:55:18.880Z,71.8
2016-06-06T08:55:21.833Z,71.4
2016-06-06T08:55:24.771Z,71
2016-06-06T08:55:27.708Z,71.3
2016-06-06T08:55:31.490Z,71.8
2016-06-06T08:55:34.427Z,71.4
2016-06-06T08:55:37.365Z,71.1
2016-06-06T08:55:40.318Z,71.3
2016-06-06T08:55:44.240Z,71.3
2016-06-06T08:55:47.193Z,71.3
2016-06-06T08:55:49.974Z,71.4
2016-06-06T08:55:52.912Z,71.3
2016-06-06T08:55:56.833Z,71.2
2016-06-06T08:55:59.771Z,71.2
2016-06-06T08:56:02.710Z,71.3
2016-06-06T08:56:05.664Z,71.2
2016-06-06T08:56:09.585Z,71.3
2016-06-06T08:56:12.523Z,71.1
2016-06-06T08:56:15.460Z,71.3
2016-06-06T08:56:18.398Z,71.2
2016-06-06T08:56:22.335Z,71.3
2016-06-06T08:56:25.117Z,71.3
2016-06-06T08:56:28.054Z,71.3
2016-06-06T08:56:30.992Z,71.3
2016-06-06T08:56:34.914Z,71
2016-06-06T08:56:37.835Z,71.5
2016-06-06T08:56:40.773Z,71.4
2016-06-06T08:56:43.710Z,71.4
2016-06-06T08:56:47.632Z,71.7
2016-06-06T08:56:50.429Z,71.9
2016-06-06T08:56:53.367Z,71.9
2016-06-06T08:56:56.320Z,71.7
2016-06-06T08:57:00.226Z,71.5
2016-06-06T08:57:03.167Z,71.7
2016-06-06T08:57:06.104Z,71.5
2016-06-06T08:57:09.042Z,71.5
2016-06-06T08:57:12.963Z,71.8
2016-06-06T08:57:15.901Z,72.1
2016-06-06T08:57:18.838Z,71.9
2016-06-06T08:57:21.776Z,72.1
2016-06-06T08:57:25.682Z,71.9
2016-06-06T08:57:28.620Z,71.9
2016-06-06T08:57:31.573Z,72
2016-06-06T08:57:34.495Z,71.8
2016-06-06T08:57:38.260Z,71.6
2016-06-06T08:57:41.198Z,71.5
2016-06-06T08:57:44.135Z,71.8
2016-06-06T08:57:46.932Z,71.6
2016-06-06T08:57:50.838Z,71.6
2016-06-06T08:57:53.635Z,71.6
2016-06-06T08:57:56.557Z,71.6
2016-06-06T08:57:59.510Z,71.5
2016-06-06T08:58:03.419Z,71.6
2016-06-06T08:58:06.356Z,71.5
2016-06-06T08:58:09.294Z,71.6
2016-06-06T08:58:12.247Z,71.6
2016-06-06T08:58:16.012Z,71.5
2016-06-06T08:58:18.950Z,71.9
2016-06-06T08:58:21.887Z,71.9
2016-06-06T08:58:24.825Z,71.5
2016-06-06T08:58:28.434Z,71.9
2016-06-06T08:58:31.215Z,71.4
2016-06-06T08:58:34.153Z,71.5
2016-06-06T08:58:37.090Z,71.4
2016-06-06T08:58:41.340Z,71.7
2016-06-06T08:58:44.528Z,71.5
2016-06-06T08:58:47.575Z,71.5
2016-06-06T08:58:51.387Z,71.6
2016-06-06T08:58:54.403Z,71.7
2016-06-06T08:58:57.747Z,71.5
2016-06-06T08:59:02.844Z,71.5
2016-06-06T08:59:05.938Z,71.9
2016-06-06T08:59:08.751Z,71.8
2016-06-06T08:59:12.735Z,71.8
2016-06-06T08:59:15.548Z,71.9
2016-06-06T08:59:18.751Z,71.5
2016-06-06T08:59:23.673Z,71.9
2016-06-06T08:59:26.329Z,71.8
2016-06-06T08:59:29.282Z,71.8
2016-06-06T08:59:34.407Z,71.9
2016-06-06T08:59:37.188Z,71.7
2016-06-06T08:59:40.423Z,72
2016-06-06T08:59:45.001Z,71.7
2016-06-06T08:59:47.829Z,71.5
2016-06-06T08:59:51.329Z,72
2016-06-06T08:59:54.969Z,71.6
2016-06-06T08:59:59.860Z,71.8
2016-06-06T09:00:02.862Z,71.9
2016-06-06T09:00:06.503Z,71.9
2016-06-06T09:00:09.940Z,72
2016-06-06T09:00:13.440Z,72
2016-06-06T09:00:17.190Z,71.9
2016-06-06T09:00:20.128Z,72
2016-06-06T09:00:23.065Z,72
2016-06-06T09:00:26.050Z,72
2016-06-06T09:00:29.987Z,72
2016-06-06T09:00:32.925Z,71.8
2016-06-06T09:00:35.862Z,72
2016-06-06T09:00:38.800Z,71.7
2016-06-06T09:00:42.721Z,72
2016-06-06T09:00:45.659Z,71.7
2016-06-06T09:00:48.596Z,72
2016-06-06T09:00:51.550Z,71.9
2016-06-06T09:00:55.456Z,72
2016-06-06T09:00:58.237Z,71.9
2016-06-06T09:01:01.175Z,72.1
2016-06-06T09:01:04.115Z,72.1
2016-06-06T09:01:08.021Z,71.9
2016-06-06T09:01:10.974Z,72
2016-06-06T09:01:13.756Z,72.1
2016-06-06T09:01:16.709Z,72.1
2016-06-06T09:01:20.631Z,71.9
2016-06-06T09:01:23.584Z,72.1
2016-06-06T09:01:26.521Z,72.1
2016-06-06T09:01:29.459Z,72
2016-06-06T09:01:33.381Z,72
2016-06-06T09:01:36.162Z,71.9
2016-06-06T09:01:38.943Z,72
2016-06-06T09:01:41.881Z,72
2016-06-06T09:01:45.678Z,72
2016-06-06T09:01:48.631Z,72
2016-06-06T09:01:51.771Z,72
2016-06-06T09:01:55.740Z,71.9
2016-06-06T09:01:58.678Z,72
2016-06-06T09:02:01.631Z,72
2016-06-06T09:02:04.618Z,72
2016-06-06T09:02:08.634Z,72.2
2016-06-06T09:02:11.493Z,72.2
2016-06-06T09:02:14.431Z,72
2016-06-06T09:02:17.399Z,72.1
2016-06-06T09:02:21.306Z,72
2016-06-06T09:02:24.243Z,72
2016-06-06T09:02:27.181Z,72
2016-06-06T09:02:30.196Z,71.5
2016-06-06T09:02:34.118Z,71.6
2016-06-06T09:02:37.056Z,71.5
2016-06-06T09:02:39.993Z,71.6
2016-06-06T09:02:42.931Z,71.5
2016-06-06T09:02:46.868Z,71.5
2016-06-06T09:02:49.821Z,71.8
2016-06-06T09:02:52.759Z,71.6
2016-06-06T09:02:55.696Z,71.5
2016-06-06T09:02:59.618Z,71.8
2016-06-06T09:03:02.587Z,72
2016-06-06T09:03:05.386Z,71.8
2016-06-06T09:03:08.323Z,72
2016-06-06T09:03:12.245Z,71.9
2016-06-06T09:03:15.183Z,71.9
2016-06-06T09:03:18.120Z,71.9
2016-06-06T09:03:21.058Z,72.1
2016-06-06T09:03:24.979Z,71.9
2016-06-06T09:03:27.761Z,72
2016-06-06T09:03:30.698Z,72
2016-06-06T09:03:33.636Z,72.1
2016-06-06T09:03:37.558Z,71.9
2016-06-06T09:03:40.495Z,72
2016-06-06T09:03:43.448Z,71.9
2016-06-06T09:03:46.386Z,72
2016-06-06T09:03:50.308Z,72
2016-06-06T09:03:53.104Z,72.1
2016-06-06T09:03:56.526Z,71.8
2016-06-06T09:04:00.448Z,71.8
2016-06-06T09:04:03.420Z,72.6
2016-06-06T09:04:06.357Z,72.5
2016-06-06T09:04:09.311Z,72.3
2016-06-06T09:04:13.217Z,72.6
2016-06-06T09:04:16.154Z,72.3
2016-06-06T09:04:19.092Z,72.8
2016-06-06T09:04:22.045Z,72.8
2016-06-06T09:04:25.951Z,72.8
2016-06-06T09:04:28.748Z,73
2016-06-06T09:04:31.686Z,72.9
2016-06-06T09:04:34.623Z,72.9
2016-06-06T09:04:38.264Z,72.9
2016-06-06T09:04:41.201Z,72.7
2016-06-06T09:04:44.154Z,72.8
2016-06-06T09:04:46.936Z,72.4
2016-06-06T09:04:50.857Z,72.8
2016-06-06T09:04:53.795Z,72.9
2016-06-06T09:04:56.764Z,72.5
2016-06-06T09:04:59.701Z,72.5
2016-06-06T09:05:03.626Z,72.3
2016-06-06T09:05:06.564Z,72.3
2016-06-06T09:05:09.501Z,72.3
2016-06-06T09:05:12.439Z,72.5
2016-06-06T09:05:16.360Z,72.4
2016-06-06T09:05:21.485Z,72.3
2016-06-06T09:05:24.267Z,72.5
2016-06-06T09:05:28.032Z,72.3
2016-06-06T09:05:30.970Z,72.5
2016-06-06T09:05:33.907Z,72.3
2016-06-06T09:05:36.845Z,72.4
2016-06-06T09:05:43.423Z,72.3
2016-06-06T09:05:46.360Z,72.5
2016-06-06T09:05:49.298Z,72.3
2016-06-06T09:05:55.704Z,72.5
2016-06-06T09:05:58.642Z,72.4
2016-06-06T09:06:01.579Z,72.3
2016-06-06T09:06:08.144Z,72.3
2016-06-06T09:06:10.941Z,72.3
2016-06-06T09:06:13.894Z,72.4
2016-06-06T09:06:17.831Z,72.4
2016-06-06T09:06:20.784Z,72.5
2016-06-06T09:06:23.722Z,72.6
2016-06-06T09:06:26.503Z,72.5
2016-06-06T09:06:30.144Z,72.5
2016-06-06T09:06:32.941Z,72.4
2016-06-06T09:06:35.722Z,72.3
2016-06-06T09:06:38.659Z,72.4
2016-06-06T09:06:42.581Z,72.5
2016-06-06T09:06:45.519Z,72.5
2016-06-06T09:06:48.472Z,72.3
2016-06-06T09:06:51.409Z,72.3
2016-06-06T09:06:55.175Z,72.2
2016-06-06T09:07:00.347Z,72.3
2016-06-06T09:07:03.131Z,72.5
2016-06-06T09:07:07.053Z,72.2
2016-06-06T09:07:09.850Z,72.4
2016-06-06T09:07:12.772Z,72.9
2016-06-06T09:07:18.959Z,72.7
2016-06-06T09:07:21.897Z,72.6
2016-06-06T09:07:24.834Z,72.9
2016-06-06T09:07:27.772Z,72.9
2016-06-06T09:07:31.694Z,72.9
2016-06-06T09:07:37.287Z,72.4
2016-06-06T09:07:40.225Z,72.6
2016-06-06T09:07:44.147Z,72.3
2016-06-06T09:07:49.709Z,72.4
2016-06-06T09:07:52.490Z,72.2
2016-06-06T09:07:56.256Z,72.6
2016-06-06T09:07:59.194Z,72.4
2016-06-06T09:08:01.975Z,72.4
2016-06-06T09:08:04.930Z,72.4
2016-06-06T09:08:10.867Z,72.6
2016-06-06T09:08:13.805Z,72.7
2016-06-06T09:08:16.758Z,72.7
2016-06-06T09:08:19.696Z,72.4
2016-06-06T09:08:23.617Z,72.4
2016-06-06T09:08:26.571Z,72.7
2016-06-06T09:08:29.492Z,72.8
2016-06-06T09:08:32.446Z,72.7
2016-06-06T09:08:36.383Z,72.8
2016-06-06T09:08:39.336Z,72.8
2016-06-06T09:08:42.274Z,72.5
2016-06-06T09:08:45.227Z,72.5
2016-06-06T09:08:49.149Z,72.5
2016-06-06T09:08:52.086Z,72.6
2016-06-06T09:08:55.024Z,72.1
2016-06-06T09:08:57.961Z,72.4
2016-06-06T09:09:01.883Z,72.3
2016-06-06T09:09:04.825Z,72.6
2016-06-06T09:09:07.762Z,72.8
2016-06-06T09:09:10.700Z,72.7
2016-06-06T09:09:14.637Z,72.7
2016-06-06T09:09:17.575Z,72.6
2016-06-06T09:09:20.528Z,72.7
2016-06-06T09:09:23.465Z,72.6
2016-06-06T09:09:27.387Z,72.7
2016-06-06T09:09:30.168Z,72.7
2016-06-06T09:09:35.825Z,72.7
2016-06-06T09:09:39.746Z,72.6
2016-06-06T09:09:42.684Z,72.1
2016-06-06T09:09:45.621Z,72.3
2016-06-06T09:09:48.559Z,72.3
2016-06-06T09:09:52.465Z,72.3
2016-06-06T09:09:55.106Z,72.3
2016-06-06T09:09:58.043Z,72.5
2016-06-06T09:10:00.918Z,72.2
2016-06-06T09:10:04.842Z,72.5
2016-06-06T09:10:07.623Z,72.5
2016-06-06T09:10:10.561Z,72.6
2016-06-06T09:10:13.514Z,72.6
2016-06-06T09:10:17.436Z,72.6
2016-06-06T09:10:20.217Z,72.6
2016-06-06T09:10:22.998Z,72.5
2016-06-06T09:10:25.936Z,72.4
2016-06-06T09:10:29.858Z,72.6
2016-06-06T09:10:34.123Z,72.4
2016-06-06T09:10:40.170Z,72.5
2016-06-06T09:10:43.139Z,72.6
2016-06-06T09:10:48.014Z,72.5
2016-06-06T09:10:51.780Z,72.7
2016-06-06T09:10:54.717Z,72.7
2016-06-06T09:10:57.655Z,72.6
2016-06-06T09:11:00.592Z,72.6
2016-06-06T09:11:04.533Z,72.7
2016-06-06T09:11:07.455Z,72.6
2016-06-06T09:11:10.408Z,72.7
2016-06-06T09:11:13.361Z,72.6
2016-06-06T09:11:17.283Z,72.3
2016-06-06T09:11:20.220Z,72.7
2016-06-06T09:11:23.158Z,72.6
2016-06-06T09:11:26.095Z,72.7
2016-06-06T09:11:30.017Z,72.3
2016-06-06T09:11:32.970Z,72.6
2016-06-06T09:11:35.908Z,72.7
2016-06-06T09:11:38.830Z,72.6
2016-06-06T09:11:42.751Z,72.3
2016-06-06T09:11:45.533Z,72.3
2016-06-06T09:11:48.314Z,72.3
2016-06-06T09:11:51.251Z,72.9
2016-06-06T09:11:55.173Z,72.6
2016-06-06T09:11:58.111Z,72.8
2016-06-06T09:12:01.048Z,72.5
2016-06-06T09:12:04.004Z,72.8
2016-06-06T09:12:07.926Z,72.5
2016-06-06T09:12:10.879Z,72.9
2016-06-06T09:12:13.817Z,72.7
2016-06-06T09:12:17.879Z,73.4
2016-06-06T09:12:20.833Z,73.3
2016-06-06T09:12:23.770Z,73.3
2016-06-06T09:12:26.708Z,73.3
2016-06-06T09:12:30.629Z,73.3
2016-06-06T09:12:33.583Z,72.9
2016-06-06T09:12:36.364Z,73.3
2016-06-06T09:12:39.301Z,73.2
2016-06-06T09:12:43.067Z,73.2
2016-06-06T09:12:46.004Z,73.4
2016-06-06T09:12:48.942Z,73.2
2016-06-06T09:12:51.879Z,72.7
2016-06-06T09:12:55.817Z,72.8
2016-06-06T09:12:58.442Z,72.7
2016-06-06T09:13:01.223Z,72.6
2016-06-06T09:13:04.178Z,72.8
2016-06-06T09:13:08.085Z,72.7
2016-06-06T09:13:11.038Z,72.8
2016-06-06T09:13:13.960Z,72.8
2016-06-06T09:13:16.897Z,72.7
2016-06-06T09:13:20.819Z,72.7
2016-06-06T09:13:23.756Z,72.9
2016-06-06T09:13:26.710Z,72.7
2016-06-06T09:13:29.491Z,72.7
2016-06-06T09:13:33.413Z,72.8
2016-06-06T09:13:36.366Z,73
2016-06-06T09:13:39.303Z,72.8
2016-06-06T09:13:42.100Z,72.7
2016-06-06T09:13:46.288Z,72.6
2016-06-06T09:13:49.069Z,72.7
2016-06-06T09:13:52.038Z,72.9
2016-06-06T09:13:54.835Z,72.6
2016-06-06T09:13:59.397Z,72.8
2016-06-06T09:14:02.710Z,72.8
2016-06-06T09:14:06.494Z,72.8
2016-06-06T09:14:10.119Z,72.8
2016-06-06T09:14:13.572Z,72.9
2016-06-06T09:14:16.509Z,72.7
2016-06-06T09:14:22.025Z,72.6
2016-06-06T09:14:26.322Z,72.6
2016-06-06T09:14:29.509Z,72.7
2016-06-06T09:14:33.025Z,72.9
2016-06-06T09:14:35.822Z,72.8
2016-06-06T09:14:39.259Z,72.9
2016-06-06T09:14:43.603Z,72.1
2016-06-06T09:14:46.244Z,72.8
2016-06-06T09:14:49.400Z,72.8
2016-06-06T09:14:53.338Z,72.3
2016-06-06T09:14:56.759Z,72.4
2016-06-06T09:15:00.072Z,72.3
2016-06-06T09:15:04.761Z,72.3
2016-06-06T09:15:07.715Z,72.2
2016-06-06T09:15:10.496Z,72.4
2016-06-06T09:15:14.261Z,72.5
2016-06-06T09:15:17.215Z,72.4
2016-06-06T09:15:20.152Z,72.3
2016-06-06T09:15:23.090Z,72.5
2016-06-06T09:15:26.871Z,72.4
2016-06-06T09:15:29.808Z,72.5
2016-06-06T09:15:32.746Z,72.3
2016-06-06T09:15:35.699Z,72.5
2016-06-06T09:15:39.605Z,72.3
2016-06-06T09:15:42.543Z,72.9
2016-06-06T09:15:45.496Z,73
2016-06-06T09:15:48.433Z,72.8
2016-06-06T09:15:52.355Z,72.6
2016-06-06T09:15:55.308Z,72.6
2016-06-06T09:15:58.261Z,72.7
2016-06-06T09:16:01.043Z,72.7
2016-06-06T09:16:04.952Z,72.8
2016-06-06T09:16:07.749Z,72.8
2016-06-06T09:16:10.686Z,72.7
2016-06-06T09:16:13.686Z,73
2016-06-06T09:16:17.858Z,73.2
2016-06-06T09:16:20.811Z,73.2
2016-06-06T09:16:23.749Z,73.3
2016-06-06T09:16:26.702Z,73.3
2016-06-06T09:16:30.608Z,73.3
2016-06-06T09:16:33.561Z,73.3
2016-06-06T09:16:36.483Z,73.3
2016-06-06T09:16:39.421Z,73.3
2016-06-06T09:16:43.358Z,73.3
2016-06-06T09:16:46.296Z,73.3
2016-06-06T09:16:49.233Z,73.2
2016-06-06T09:16:52.171Z,73.2
2016-06-06T09:16:56.093Z,73.3
2016-06-06T09:16:59.030Z,73.4
2016-06-06T09:17:01.968Z,73.4
2016-06-06T09:17:04.924Z,73.4
2016-06-06T09:17:08.689Z,73.3
2016-06-06T09:17:11.627Z,73.3
2016-06-06T09:17:14.580Z,73.4
2016-06-06T09:17:17.361Z,73.2
2016-06-06T09:17:21.283Z,73.3
2016-06-06T09:17:24.064Z,73.2
2016-06-06T09:17:27.002Z,73
2016-06-06T09:17:29.799Z,72.7
2016-06-06T09:17:33.705Z,72.6
2016-06-06T09:17:36.642Z,72.6
2016-06-06T09:17:39.439Z,72.6
2016-06-06T09:17:42.377Z,72.8
2016-06-06T09:17:46.299Z,72.5
2016-06-06T09:17:49.236Z,72.8
2016-06-06T09:17:52.174Z,72.9
2016-06-06T09:17:55.111Z,72.8
2016-06-06T09:17:59.033Z,72.7
2016-06-06T09:18:01.971Z,72.8
2016-06-06T09:18:04.911Z,72.9
2016-06-06T09:18:07.849Z,73
2016-06-06T09:18:11.770Z,72.6
2016-06-06T09:18:14.708Z,72.6
2016-06-06T09:18:17.661Z,72.9
2016-06-06T09:18:20.599Z,72.6
2016-06-06T09:18:24.536Z,72.8
2016-06-06T09:18:27.474Z,72.9
2016-06-06T09:18:30.411Z,72.9
2016-06-06T09:18:33.270Z,72.9
2016-06-06T09:18:37.333Z,72.9
2016-06-06T09:18:40.270Z,72.6
2016-06-06T09:18:43.208Z,72.7
2016-06-06T09:18:46.005Z,72.8
2016-06-06T09:18:49.770Z,72.7
2016-06-06T09:18:52.708Z,72.8
2016-06-06T09:18:55.661Z,72.5
2016-06-06T09:18:58.599Z,72.8
2016-06-06T09:19:02.505Z,72.7
2016-06-06T09:19:05.460Z,72.8
2016-06-06T09:19:08.397Z,72.6
2016-06-06T09:19:11.351Z,72.8
2016-06-06T09:19:15.257Z,73
2016-06-06T09:19:18.210Z,73.4
2016-06-06T09:19:21.132Z,73.4
2016-06-06T09:19:24.069Z,73.3
2016-06-06T09:19:28.007Z,73.4
2016-06-06T09:19:30.944Z,73.4
2016-06-06T09:19:33.882Z,73.5
2016-06-06T09:19:36.819Z,73.6
2016-06-06T09:19:40.429Z,72.6
2016-06-06T09:19:43.366Z,72.9
2016-06-06T09:19:46.304Z,72.7
2016-06-06T09:19:49.257Z,72.5
2016-06-06T09:19:53.179Z,72.6
2016-06-06T09:19:56.116Z,72.7
2016-06-06T09:19:59.054Z,72.7
2016-06-06T09:20:01.991Z,72.8
2016-06-06T09:20:05.916Z,72.7
2016-06-06T09:20:08.854Z,72.7
2016-06-06T09:20:11.791Z,72.6
2016-06-06T09:20:14.729Z,72.7
2016-06-06T09:20:18.650Z,72.8
2016-06-06T09:20:21.604Z,72.9
2016-06-06T09:20:24.541Z,72.8
2016-06-06T09:20:27.479Z,72.9
2016-06-06T09:20:31.400Z,72.9
2016-06-06T09:20:34.338Z,72.5
2016-06-06T09:20:37.275Z,72.8
2016-06-06T09:20:40.057Z,72.6
2016-06-06T09:20:43.979Z,72.8
2016-06-06T09:20:46.916Z,72.5
2016-06-06T09:20:49.854Z,72.5
2016-06-06T09:20:52.791Z,72.8
2016-06-06T09:20:56.572Z,72.8
2016-06-06T09:20:59.510Z,72.6
2016-06-06T09:21:02.447Z,72.5
2016-06-06T09:21:05.388Z,72.8
2016-06-06T09:21:09.169Z,73
2016-06-06T09:21:12.122Z,72.9
2016-06-06T09:21:15.060Z,72.8
2016-06-06T09:21:18.013Z,73
2016-06-06T09:21:21.935Z,72.9
2016-06-06T09:21:24.747Z,73.2
2016-06-06T09:21:27.700Z,73.4
2016-06-06T09:21:30.653Z,73.4
2016-06-06T09:21:34.560Z,73.5
2016-06-06T09:21:37.357Z,73.3
2016-06-06T09:21:40.294Z,73.4
2016-06-06T09:21:43.232Z,73.3
2016-06-06T09:21:47.013Z,73.3
2016-06-06T09:21:49.950Z,73.1
2016-06-06T09:21:52.888Z,73.2
2016-06-06T09:21:55.669Z,73.2
2016-06-06T09:21:59.575Z,73.3
2016-06-06T09:22:02.528Z,73.2
2016-06-06T09:22:05.468Z,73.1
2016-06-06T09:22:08.421Z,73.4
2016-06-06T09:22:12.187Z,73.4
2016-06-06T09:22:14.968Z,73.4
2016-06-06T09:22:17.905Z,73.4
2016-06-06T09:22:20.843Z,73
2016-06-06T09:22:24.780Z,73.2
2016-06-06T09:22:27.577Z,73.2
2016-06-06T09:22:30.515Z,73.5
2016-06-06T09:22:33.452Z,72.9
2016-06-06T09:22:37.374Z,72.8
2016-06-06T09:22:40.327Z,72.6
2016-06-06T09:22:43.265Z,73
2016-06-06T09:22:46.202Z,73
2016-06-06T09:22:50.109Z,72.9
2016-06-06T09:22:53.046Z,72.8
2016-06-06T09:22:55.999Z,72.7
2016-06-06T09:22:58.937Z,72.8
2016-06-06T09:23:02.859Z,72.8
2016-06-06T09:23:05.799Z,72.8
2016-06-06T09:23:08.737Z,72.9
2016-06-06T09:23:11.674Z,72.8
2016-06-06T09:23:15.596Z,72.6
2016-06-06T09:23:18.533Z,72.8
2016-06-06T09:23:21.471Z,72.8
2016-06-06T09:23:24.408Z,72.8
2016-06-06T09:23:28.330Z,72.8
2016-06-06T09:23:31.268Z,72.8
2016-06-06T09:23:34.065Z,72.8
2016-06-06T09:23:37.002Z,72.9
2016-06-06T09:23:40.940Z,73